createdAt,value
2022-10-26T00:00:47.624Z,23.7
2022-10-26T00:06:06.391Z,23.7
2022-10-26T00:11:24.607Z,23.7
2022-10-26T00:16:43.118Z,23.6
2022-10-26T00:22:01.013Z,23.6
2022-10-26T00:27:19.216Z,23.7
2022-10-26T00:32:38.123Z,23.6
2022-10-26T00:37:56.901Z,23.6
2022-10-26T00:43:15.370Z,23.6
2022-10-26T00:48:33.637Z,23.6
2022-10-26T00:53:52.373Z,23.6
2022-10-26T00:59:10.868Z,23.6
2022-10-26T01:04:29.384Z,23.6
2022-10-26T01:09:47.576Z,23.6
2022-10-26T01:15:05.777Z,23.7
2022-10-26T01:20:24.295Z,23.6
2022-10-26T01:25:42.774Z,23.7
2022-10-26T01:31:01.252Z,23.7
2022-10-26T01:36:19.725Z,23.6
2022-10-26T01:41:38.387Z,23.6
2022-10-26T01:46:57.144Z,23.6
2022-10-26T01:52:15.654Z,23.6
2022-10-26T01:57:34.398Z,23.7
2022-10-26T02:02:36.988Z,23.6
2022-10-26T02:07:55.494Z,23.7
2022-10-26T02:13:13.954Z,23.7
2022-10-26T02:18:32.459Z,23.7
2022-10-26T02:23:50.677Z,23.7
2022-10-26T02:29:08.911Z,23.7
2022-10-26T02:34:27.139Z,23.7
2022-10-26T02:39:45.370Z,23.7
2022-10-26T02:45:03.832Z,23.7
2022-10-26T02:50:22.612Z,23.6
2022-10-26T02:55:41.107Z,23.7
2022-10-26T03:00:59.579Z,23.7
2022-10-26T03:06:18.067Z,23.7
2022-10-26T03:11:20.684Z,23.7
2022-10-26T03:16:39.183Z,23.7
2022-10-26T03:21:57.405Z,23.7
2022-10-26T03:27:15.920Z,23.7
2022-10-26T03:32:34.103Z,23.7
2022-10-26T03:37:52.692Z,23.7
2022-10-26T03:43:11.503Z,23.7
2022-10-26T03:48:29.965Z,23.7
2022-10-26T03:53:48.725Z,23.7
2022-10-26T03:59:07.524Z,23.7
2022-10-26T04:04:25.952Z,23.7
2022-10-26T04:09:44.498Z,23.7
2022-10-26T04:20:21.950Z,23.7
2022-10-26T04:25:39.883Z,23.7
2022-10-26T04:30:58.688Z,23.7
2022-10-26T04:36:17.432Z,23.7
2022-10-26T04:41:35.924Z,23.7
2022-10-26T04:46:54.715Z,23.7
2022-10-26T04:52:13.463Z,23.5
2022-10-26T04:57:31.406Z,23.4
2022-10-26T05:02:49.641Z,23.1
2022-10-26T05:08:08.109Z,23.3
2022-10-26T05:18:46.078Z,23.4
2022-10-26T05:24:10.051Z,23.4
2022-10-26T05:29:31.134Z,23.4
2022-10-26T05:34:49.929Z,23.4
2022-10-26T05:40:08.653Z,23.4
2022-10-26T05:45:27.430Z,23.5
2022-10-26T05:50:45.684Z,23.5
2022-10-26T05:56:08.643Z,23.5
2022-10-26T06:01:28.914Z,23.6
2022-10-26T06:06:47.390Z,23.7
2022-10-26T06:12:05.311Z,23.8
2022-10-26T06:17:23.783Z,23.8
2022-10-26T06:22:42.276Z,23.8
2022-10-26T06:28:00.746Z,23.8
2022-10-26T06:33:28.709Z,23.9
2022-10-26T06:38:48.834Z,23.9
2022-10-26T06:44:07.020Z,23.9
2022-10-26T06:49:25.495Z,23.9
2022-10-26T06:54:43.999Z,24
2022-10-26T07:00:02.271Z,24
2022-10-26T07:05:20.210Z,24
2022-10-26T07:10:38.453Z,24
2022-10-26T07:15:56.905Z,24
2022-10-26T07:21:15.111Z,24.1
2022-10-26T07:26:33.060Z,24.1
2022-10-26T07:31:51.357Z,24.2
2022-10-26T07:37:09.922Z,24.2
2022-10-26T07:42:28.430Z,24.2
2022-10-26T07:47:46.893Z,24.3
2022-10-26T07:53:05.378Z,24.3
2022-10-26T07:58:23.946Z,24.3
2022-10-26T08:03:42.419Z,24.3
2022-10-26T08:09:01.207Z,24.4
2022-10-26T08:14:20.032Z,24.4
2022-10-26T08:19:38.925Z,24.4
2022-10-26T08:24:57.686Z,24.5
2022-10-26T08:30:16.197Z,24.5
2022-10-26T08:35:34.667Z,24.5
2022-10-26T08:40:53.152Z,24.5
2022-10-26T08:46:11.936Z,24.6
2022-10-26T08:51:30.114Z,24.6
2022-10-26T08:56:51.371Z,24.6
2022-10-26T09:02:10.157Z,24.7
2022-10-26T09:07:28.881Z,24.7
2022-10-26T09:12:48.048Z,24.7
2022-10-26T09:18:06.546Z,24.7
2022-10-26T09:23:24.995Z,24.7
2022-10-26T09:28:43.459Z,24.7
2022-10-26T09:34:01.924Z,24.7
2022-10-26T09:39:19.794Z,24.8
2022-10-26T09:44:38.273Z,24.8
2022-10-26T09:49:57.067Z,24.8
2022-10-26T09:55:15.545Z,24.8
2022-10-26T10:05:53.512Z,24.8
2022-10-26T10:11:11.692Z,24.8
2022-10-26T10:16:29.885Z,24.8
2022-10-26T10:21:48.399Z,24.8
2022-10-26T10:27:06.860Z,24.8
2022-10-26T10:32:25.345Z,24.8
2022-10-26T10:37:43.922Z,24.8
2022-10-26T10:43:02.405Z,24.8
2022-10-26T10:48:21.180Z,24.8
2022-10-26T10:53:39.714Z,24.8
2022-10-26T10:58:58.273Z,24.8
2022-10-26T11:04:16.869Z,24.8
2022-10-26T11:09:35.635Z,24.8
2022-10-26T11:14:54.105Z,24.8
2022-10-26T11:20:15.415Z,24.8
2022-10-26T11:25:34.217Z,24.8
2022-10-26T11:30:52.673Z,24.8
2022-10-26T11:36:10.879Z,24.8
2022-10-26T11:41:29.668Z,24.8
2022-10-26T11:46:48.125Z,24.8
2022-10-26T11:52:06.582Z,24.8
2022-10-26T11:57:25.087Z,24.8
2022-10-26T12:02:43.853Z,24.8
2022-10-26T12:08:02.615Z,24.8
2022-10-26T12:13:21.422Z,24.7
2022-10-26T12:18:57.017Z,24.7
2022-10-26T12:24:15.967Z,24.7
2022-10-26T12:29:34.481Z,24.6
2022-10-26T12:34:52.649Z,24.6
2022-10-26T12:40:10.845Z,24.6
2022-10-26T12:45:29.112Z,24.6
2022-10-26T12:50:47.550Z,24.6
2022-10-26T12:56:06.043Z,24.5
2022-10-26T13:01:24.785Z,24.5
2022-10-26T13:06:43.635Z,24.5
2022-10-26T13:12:01.851Z,24.5
2022-10-26T13:17:20.364Z,24.5
2022-10-26T13:22:38.519Z,24.5
2022-10-26T13:27:57.057Z,24.5
2022-10-26T13:33:15.006Z,24.5
2022-10-26T13:38:33.752Z,24.4
2022-10-26T13:43:52.510Z,24.4
2022-10-26T13:49:11.166Z,24.4
2022-10-26T13:54:29.420Z,24.4
2022-10-26T13:59:47.895Z,24.4
2022-10-26T14:05:06.110Z,24.4
2022-10-26T14:10:24.287Z,24.4
2022-10-26T14:15:43.046Z,24.4
2022-10-26T14:21:01.559Z,24.4
2022-10-26T14:26:20.962Z,24.3
2022-10-26T14:31:39.439Z,24.3
2022-10-26T14:36:57.666Z,24.3
2022-10-26T14:42:15.842Z,24.3
2022-10-26T14:47:34.330Z,24.3
2022-10-26T14:52:52.845Z,24.3
2022-10-26T14:58:11.243Z,24.3
2022-10-26T15:03:30.102Z,24.3
2022-10-26T15:08:57.651Z,24.3
2022-10-26T15:14:15.547Z,24.3
2022-10-26T15:19:34.025Z,24.3
2022-10-26T15:24:52.855Z,24.2
2022-10-26T15:30:11.315Z,24.2
2022-10-26T15:35:29.510Z,24.2
2022-10-26T15:40:48.319Z,24.2
2022-10-26T15:46:06.881Z,24.2
2022-10-26T15:51:25.087Z,24.2
2022-10-26T15:56:43.606Z,24.2
2022-10-26T16:02:02.340Z,24.2
2022-10-26T16:07:21.125Z,24.2
2022-10-26T16:12:39.372Z,24.2
2022-10-26T16:17:57.830Z,24.1
2022-10-26T16:23:16.327Z,24.2
2022-10-26T16:28:34.848Z,24.1
2022-10-26T16:33:53.597Z,24.1
2022-10-26T16:39:11.815Z,24.2
2022-10-26T16:44:30.033Z,24.2
2022-10-26T16:49:48.504Z,24.2
2022-10-26T16:55:06.715Z,24.2
2022-10-26T17:00:25.244Z,24.1
2022-10-26T17:05:43.699Z,24.2
2022-10-26T17:11:02.172Z,24.1
2022-10-26T17:16:20.445Z,24.2
2022-10-26T17:21:38.637Z,24.2
2022-10-26T17:26:41.225Z,24.2
2022-10-26T17:31:59.709Z,24.2
2022-10-26T17:37:18.363Z,24.2
2022-10-26T17:42:36.665Z,24.2
2022-10-26T17:47:54.894Z,24.2
2022-10-26T17:53:13.088Z,24.2
2022-10-26T17:58:31.573Z,24.2
2022-10-26T18:03:50.077Z,24.1
2022-10-26T18:09:08.840Z,24.2
2022-10-26T18:14:27.044Z,24.1
2022-10-26T18:19:29.935Z,24.1
2022-10-26T18:24:48.108Z,24.1
2022-10-26T18:30:06.861Z,24.1
2022-10-26T18:35:25.090Z,24.1
2022-10-26T18:40:49.972Z,24.1
2022-10-26T18:46:08.101Z,24.1
2022-10-26T18:51:26.633Z,24.1
2022-10-26T18:56:45.057Z,24.1
2022-10-26T19:02:03.733Z,24.1
2022-10-26T19:07:22.208Z,24.1
2022-10-26T19:12:40.393Z,24.1
2022-10-26T19:17:58.878Z,24.1
2022-10-26T19:23:17.662Z,24.1
2022-10-26T19:28:35.839Z,24
2022-10-26T19:33:54.588Z,24
2022-10-26T19:39:13.142Z,24.1
2022-10-26T19:44:31.602Z,24.2
2022-10-26T19:49:50.066Z,24.2
2022-10-26T19:55:08.857Z,24.1
2022-10-26T20:00:27.788Z,24.2
2022-10-26T20:05:46.129Z,24.2
2022-10-26T20:11:04.650Z,24.2
2022-10-26T20:16:23.100Z,24.2
2022-10-26T20:21:41.293Z,24.2
2022-10-26T20:27:00.099Z,24.2
2022-10-26T20:32:18.829Z,24.2
2022-10-26T20:37:37.602Z,24.2
2022-10-26T20:42:56.411Z,24.2
2022-10-26T20:48:15.151Z,24.2
2022-10-26T20:53:33.637Z,24.2
2022-10-26T20:58:52.158Z,24.1
2022-10-26T21:04:10.890Z,24.1
2022-10-26T21:09:36.481Z,24.1
2022-10-26T21:14:54.881Z,24.1
2022-10-26T21:20:13.121Z,24.1
2022-10-26T21:25:31.897Z,24.1
2022-10-26T21:30:50.695Z,24
2022-10-26T21:36:09.443Z,24
2022-10-26T21:41:27.936Z,24
2022-10-26T21:46:46.182Z,24
2022-10-26T21:52:04.918Z,24
2022-10-26T21:57:23.695Z,24
2022-10-26T22:02:41.939Z,24
2022-10-26T22:08:00.400Z,24
2022-10-26T22:13:18.887Z,24
2022-10-26T22:18:37.410Z,24
2022-10-26T22:23:56.161Z,24
2022-10-26T22:29:14.650Z,24
2022-10-26T22:34:33.442Z,24
2022-10-26T22:39:51.641Z,24
2022-10-26T22:45:09.841Z,24
2022-10-26T22:50:28.656Z,24
2022-10-26T22:55:47.115Z,24
2022-10-26T23:01:05.906Z,24
2022-10-26T23:06:24.854Z,24
2022-10-26T23:11:43.322Z,24
2022-10-26T23:17:01.523Z,24
2022-10-26T23:22:20.058Z,23.9
2022-10-26T23:27:38.503Z,24
2022-10-26T23:32:57.270Z,23.9
2022-10-26T23:38:16.071Z,23.9
2022-10-26T23:43:34.808Z,23.9
2022-10-26T23:48:53.296Z,23.9
2022-10-26T23:54:11.526Z,23.9
2022-10-26T23:59:29.711Z,24
